createdAt,value
2023-03-16T00:02:11.953Z,39.36
2023-03-16T00:07:34.542Z,39.05
2023-03-16T00:12:57.312Z,39.17
2023-03-16T00:18:19.095Z,39.07
2023-03-16T00:23:42.682Z,39.29
2023-03-16T00:29:05.017Z,39.17
2023-03-16T00:34:30.161Z,39.29
2023-03-16T00:39:52.941Z,39.40
2023-03-16T00:45:15.118Z,39.05
2023-03-16T00:50:37.543Z,39.36
2023-03-16T00:55:59.385Z,38.99
2023-03-16T01:01:21.282Z,38.88
2023-03-16T01:06:43.173Z,39.08
2023-03-16T01:12:13.524Z,38.98
2023-03-16T01:17:35.353Z,38.89
2023-03-16T01:22:57.033Z,38.92
2023-03-16T01:28:24.783Z,39.07
2023-03-16T01:33:46.524Z,38.72
2023-03-16T01:39:08.297Z,38.90
2023-03-16T01:44:32.864Z,39.13
2023-03-16T01:49:56.977Z,38.98
2023-03-16T01:55:18.715Z,39.01
2023-03-16T02:00:42.230Z,38.96
2023-03-16T02:06:11.820Z,39.15
2023-03-16T02:11:35.039Z,39.03
2023-03-16T02:16:57.025Z,39.06
2023-03-16T02:22:19.069Z,38.82
2023-03-16T02:27:57.635Z,38.84
2023-03-16T02:33:21.474Z,38.80
2023-03-16T02:38:43.265Z,38.96
2023-03-16T02:44:06.922Z,38.62
2023-03-16T02:49:37.051Z,38.89
2023-03-16T02:54:58.730Z,38.71
2023-03-16T03:00:22.180Z,38.55
2023-03-16T03:05:44.052Z,38.99
2023-03-16T03:11:06.011Z,38.62
2023-03-16T03:16:27.781Z,38.75
2023-03-16T03:21:50.494Z,38.87
2023-03-16T03:27:12.227Z,38.59
2023-03-16T03:32:34.079Z,38.84
2023-03-16T03:37:56.028Z,38.61
2023-03-16T03:43:17.697Z,38.47
2023-03-16T03:48:39.400Z,38.82
2023-03-16T03:54:01.146Z,38.76
2023-03-16T03:59:23.220Z,38.43
2023-03-16T04:04:45.292Z,38.47
2023-03-16T04:10:08.055Z,38.26
2023-03-16T04:15:30.478Z,38.27
2023-03-16T04:20:55.214Z,38.15
2023-03-16T04:26:17.015Z,38.19
2023-03-16T04:31:38.805Z,38.08
2023-03-16T04:37:00.601Z,38.10
2023-03-16T04:42:22.913Z,38.09
2023-03-16T04:47:44.641Z,38.18
2023-03-16T04:53:06.473Z,37.95
2023-03-16T04:58:28.598Z,37.71
2023-03-16T05:03:50.365Z,37.70
2023-03-16T05:09:12.082Z,37.92
2023-03-16T05:14:36.229Z,37.74
2023-03-16T05:19:58.555Z,37.90
2023-03-16T05:25:21.172Z,37.39
2023-03-16T05:30:43.421Z,37.33
2023-03-16T05:36:05.392Z,37.62
2023-03-16T05:41:27.153Z,37.22
2023-03-16T05:46:48.986Z,37.37
2023-03-16T05:52:10.781Z,37.18
2023-03-16T05:57:34.165Z,37.15
2023-03-16T06:02:55.978Z,36.71
2023-03-16T06:08:17.744Z,36.57
2023-03-16T06:13:40.095Z,35.99
2023-03-16T06:19:01.840Z,35.11
2023-03-16T06:24:23.651Z,34.46
2023-03-16T06:29:45.472Z,33.85
2023-03-16T06:35:07.420Z,33.69
2023-03-16T06:40:29.603Z,33.51
2023-03-16T06:45:51.936Z,33.66
2023-03-16T06:51:15.705Z,33.52
2023-03-16T06:56:38.494Z,33.85
2023-03-16T07:02:00.219Z,33.95
2023-03-16T07:07:22.274Z,33.94
2023-03-16T07:12:44.831Z,34.20
2023-03-16T07:18:06.677Z,34.44
2023-03-16T07:23:28.490Z,34.77
2023-03-16T07:28:50.338Z,34.84
2023-03-16T07:34:12.078Z,34.80
2023-03-16T07:39:33.908Z,34.64
2023-03-16T07:44:55.615Z,34.46
2023-03-16T07:50:19.392Z,34.75
2023-03-16T07:55:43.409Z,34.83
2023-03-16T08:01:05.305Z,34.46
2023-03-16T08:06:27.826Z,34.39
2023-03-16T08:11:49.831Z,34.15
2023-03-16T08:17:12.599Z,33.86
2023-03-16T08:22:36.651Z,31.50
2023-03-16T08:27:58.391Z,31.06
2023-03-16T08:33:23.614Z,30.98
2023-03-16T08:39:00.080Z,30.77
2023-03-16T08:44:28.399Z,31.14
2023-03-16T08:49:51.027Z,31.68
2023-03-16T08:55:13.437Z,31.60
2023-03-16T09:00:35.444Z,31.98
2023-03-16T09:06:08.337Z,32.04
2023-03-16T09:11:33.749Z,32.19
2023-03-16T09:16:56.704Z,32.06
2023-03-16T09:22:19.938Z,32.22
2023-03-16T09:27:41.723Z,32.04
2023-03-16T09:33:04.527Z,32.10
2023-03-16T09:38:27.077Z,32.12
2023-03-16T09:44:00.330Z,32.15
2023-03-16T09:49:27.815Z,31.74
2023-03-16T09:55:02.034Z,32.15
2023-03-16T10:00:25.862Z,32.11
2023-03-16T10:05:56.159Z,32.12
2023-03-16T10:11:36.732Z,32.13
2023-03-16T10:16:58.430Z,32.50
2023-03-16T10:22:23.580Z,32.31
2023-03-16T10:27:46.426Z,32.38
2023-03-16T10:33:28.017Z,32.50
2023-03-16T10:39:10.683Z,32.54
2023-03-16T10:44:32.637Z,32.76
2023-03-16T10:49:55.816Z,32.64
2023-03-16T10:55:23.229Z,32.36
2023-03-16T11:00:46.564Z,32.37
2023-03-16T11:06:20.627Z,32.34
2023-03-16T11:11:49.635Z,32.18
2023-03-16T11:17:17.933Z,32.08
2023-03-16T11:22:41.950Z,32.27
2023-03-16T11:28:09.025Z,32.29
2023-03-16T11:33:32.348Z,32.25
2023-03-16T11:39:21.655Z,31.83
2023-03-16T11:44:55.649Z,32.16
2023-03-16T11:50:19.381Z,32.16
2023-03-16T11:55:52.982Z,32.32
2023-03-16T12:01:33.391Z,32.22
2023-03-16T12:07:01.549Z,32.13
2023-03-16T12:12:35.656Z,31.81
2023-03-16T12:18:02.938Z,31.76
2023-03-16T12:23:33.223Z,31.82
2023-03-16T12:28:57.402Z,31.74
2023-03-16T12:34:48.086Z,31.95
2023-03-16T12:40:28.548Z,31.77
2023-03-16T12:46:05.718Z,31.88
2023-03-16T12:51:35.548Z,32.04
2023-03-16T12:57:06.230Z,32.15
2023-03-16T13:02:34.647Z,32.14
2023-03-16T13:08:16.005Z,32.40
2023-03-16T13:14:13.226Z,32.07
2023-03-16T13:19:38.042Z,32.29
2023-03-16T13:25:38.470Z,32.46
2023-03-16T13:31:01.275Z,32.62
2023-03-16T13:36:25.702Z,32.64
2023-03-16T13:42:08.276Z,32.53
2023-03-16T13:47:30.049Z,32.49
2023-03-16T13:53:02.959Z,32.35
2023-03-16T13:58:33.670Z,32.48
2023-03-16T14:04:00.408Z,32.48
2023-03-16T14:09:26.176Z,32.48
2023-03-16T14:14:54.863Z,32.29
2023-03-16T14:20:26.086Z,32.21
2023-03-16T14:25:49.773Z,32.13
2023-03-16T14:31:13.547Z,32.17
2023-03-16T14:36:37.612Z,31.86
2023-03-16T14:42:03.368Z,31.78
2023-03-16T14:47:29.514Z,32.12
2023-03-16T14:52:54.274Z,31.74
2023-03-16T14:58:15.956Z,32.01
2023-03-16T15:03:38.162Z,31.77
2023-03-16T15:09:00.729Z,31.76
2023-03-16T15:14:40.769Z,31.77
2023-03-16T15:20:03.667Z,31.85
2023-03-16T15:25:39.449Z,32.10
2023-03-16T15:31:03.384Z,31.81
2023-03-16T15:36:26.045Z,31.82
2023-03-16T15:41:48.279Z,31.83
2023-03-16T15:47:11.028Z,32.22
2023-03-16T15:52:36.944Z,32.26
2023-03-16T15:58:00.465Z,31.94
2023-03-16T16:03:22.363Z,32.13
2023-03-16T16:08:44.388Z,32.78
2023-03-16T16:14:06.339Z,33.72
2023-03-16T16:19:28.542Z,34.51
2023-03-16T16:24:50.250Z,34.76
2023-03-16T16:30:22.698Z,35.44
2023-03-16T16:35:45.420Z,35.22
2023-03-16T16:41:09.756Z,33.40
2023-03-16T16:46:35.845Z,32.89
2023-03-16T16:51:58.856Z,33.08
2023-03-16T16:57:21.129Z,33.52
2023-03-16T17:02:46.481Z,33.84
2023-03-16T17:08:11.679Z,33.72
2023-03-16T17:13:39.222Z,34.08
2023-03-16T17:19:01.515Z,34.84
2023-03-16T17:24:24.521Z,35.24
2023-03-16T17:29:46.267Z,35.61
2023-03-16T17:35:15.562Z,35.88
2023-03-16T17:40:37.560Z,36.09
2023-03-16T17:46:01.227Z,36.10
2023-03-16T17:51:25.737Z,36.33
2023-03-16T17:56:54.371Z,36.75
2023-03-16T18:02:46.474Z,37.38
2023-03-16T18:08:14.171Z,36.91
2023-03-16T18:13:38.087Z,37.24
2023-03-16T18:19:23.933Z,37.86
2023-03-16T18:24:46.834Z,37.98
2023-03-16T18:30:09.747Z,38.58
2023-03-16T18:35:32.206Z,38.73
2023-03-16T18:40:54.115Z,39.10
2023-03-16T18:46:26.580Z,39.33
2023-03-16T18:51:53.650Z,39.12
2023-03-16T18:57:21.633Z,39.62
2023-03-16T19:02:44.815Z,39.58
2023-03-16T19:08:06.980Z,39.59
2023-03-16T19:13:28.913Z,39.70
2023-03-16T19:18:50.886Z,39.89
2023-03-16T19:24:24.308Z,40.69
2023-03-16T19:29:46.180Z,40.39
2023-03-16T19:35:16.696Z,40.46
2023-03-16T19:40:38.544Z,40.47
2023-03-16T19:46:00.465Z,40.88
2023-03-16T19:51:22.728Z,41.04
2023-03-16T19:56:45.371Z,40.75
2023-03-16T20:02:22.655Z,41.11
2023-03-16T20:07:45.360Z,40.72
2023-03-16T20:13:10.747Z,40.34
2023-03-16T20:18:33.070Z,39.44
2023-03-16T20:23:54.962Z,39.36
2023-03-16T20:29:23.740Z,39.02
2023-03-16T20:34:46.561Z,38.11
2023-03-16T20:40:09.961Z,38.19
2023-03-16T20:45:32.112Z,38.20
2023-03-16T20:50:56.266Z,38.20
2023-03-16T20:56:21.455Z,38.40
2023-03-16T21:01:45.992Z,38.82
2023-03-16T21:07:09.161Z,38.88
2023-03-16T21:12:35.892Z,39.02
2023-03-16T21:18:02.849Z,38.95
2023-03-16T21:23:24.561Z,39.41
2023-03-16T21:28:57.887Z,39.06
2023-03-16T21:34:26.072Z,39.08
2023-03-16T21:39:48.386Z,38.99
2023-03-16T21:45:10.968Z,38.97
2023-03-16T21:50:35.515Z,38.63
2023-03-16T21:55:57.647Z,38.64
2023-03-16T22:01:29.134Z,38.71
2023-03-16T22:06:50.918Z,38.91
2023-03-16T22:12:13.784Z,38.72
2023-03-16T22:17:36.762Z,38.77
2023-03-16T22:22:58.826Z,39.15
2023-03-16T22:28:20.680Z,38.88
2023-03-16T22:33:43.885Z,39.08
2023-03-16T22:39:12.469Z,39.05
2023-03-16T22:44:34.196Z,38.84
2023-03-16T22:49:56.116Z,38.87
2023-03-16T22:55:22.416Z,38.80
2023-03-16T23:00:45.572Z,39.18
2023-03-16T23:06:10.865Z,39.10
2023-03-16T23:11:35.984Z,38.91
2023-03-16T23:16:57.957Z,38.63
2023-03-16T23:22:19.773Z,38.59
2023-03-16T23:27:41.992Z,38.90
2023-03-16T23:33:03.884Z,38.69
2023-03-16T23:38:26.182Z,38.85
2023-03-16T23:43:48.970Z,38.79
2023-03-16T23:49:18.450Z,38.49
2023-03-16T23:54:40.200Z,38.78
